Time;durP1;ratioP1;P1;durP2;ratioP2;P2;SDS_P1;SDS_P2;PMS_P1;PMS_P2;Temp;Humidity;BMP_temperature;BMP_pressure;BME280_temperature;BME280_humidity;BME280_pressure;Samples;Min_cycle;Max_cycle;Signal;HPM_P1;HPM_P2
2022/03/22 00:01:00;;;;;;;46.40;28.30;;;7.50;99.90;;;;;;5027763;28;20043;-54
2022/03/22 00:03:26;;;;;;;49.67;28.17;;;7.50;99.90;;;;;;5033295;28;20648;-55
2022/03/22 00:05:52;;;;;;;43.60;27.17;;;7.40;99.90;;;;;;5032498;28;20041;-56
2022/03/22 00:08:18;;;;;;;45.88;29.17;;;7.30;99.90;;;;;;5033722;28;20068;-55
2022/03/22 00:10:44;;;;;;;47.95;28.70;;;7.20;99.90;;;;;;5032418;28;20075;-55
2022/03/22 00:13:10;;;;;;;55.85;30.23;;;7.20;99.90;;;;;;5034124;28;20375;-55
2022/03/22 00:15:36;;;;;;;46.90;29.40;;;7.10;99.90;;;;;;5033939;28;20069;-55
2022/03/22 00:18:02;;;;;;;51.47;29.83;;;7.10;99.90;;;;;;5031753;28;20071;-55
2022/03/22 00:20:28;;;;;;;56.42;30.52;;;7.10;99.90;;;;;;5041995;28;20120;-54
2022/03/22 00:22:54;;;;;;;49.88;30.17;;;7.00;99.90;;;;;;5049025;28;20116;-54
2022/03/22 00:25:43;;;;;;;54.75;31.67;;;7.00;99.90;;;;;;5049267;28;20037;-53
2022/03/22 00:28:08;;;;;;;68.30;34.42;;;7.00;99.90;;;;;;5033336;28;20382;-55
2022/03/22 00:30:35;;;;;;;55.40;31.20;;;7.00;99.90;;;;;;5033324;28;20044;-54
2022/03/22 00:33:06;;;;;;;51.78;30.33;;;7.00;99.90;;;;;;5032322;28;20037;-55
2022/03/22 00:35:37;;;;;;;60.10;31.50;;;7.10;99.90;;;;;;5033415;28;20418;-55
2022/03/22 00:38:13;;;;;;;54.38;31.27;;;7.10;99.90;;;;;;5033580;28;20025;-55
2022/03/22 00:40:40;;;;;;;51.78;31.33;;;7.10;99.90;;;;;;5033174;28;20065;-55
2022/03/22 00:43:06;;;;;;;53.80;31.73;;;7.20;99.90;;;;;;5029044;28;20061;-55
2022/03/22 00:45:34;;;;;;;60.42;32.60;;;7.20;99.90;;;;;;5031262;28;20030;-53
2022/03/22 00:48:02;;;;;;;60.83;33.00;;;7.20;99.90;;;;;;5032684;28;20496;-54
2022/03/22 00:50:30;;;;;;;59.60;33.47;;;7.30;99.90;;;;;;5033072;28;20046;-55
2022/03/22 00:52:57;;;;;;;60.25;32.50;;;7.40;99.90;;;;;;5032783;28;20045;-54
2022/03/22 00:55:26;;;;;;;62.38;33.72;;;7.40;99.90;;;;;;5032934;28;20049;-55
2022/03/22 00:57:52;;;;;;;55.40;33.15;;;7.30;99.90;;;;;;5025743;28;20046;-53
2022/03/22 01:00:19;;;;;;;54.20;32.40;;;7.30;99.90;;;;;;5031874;28;20073;-55
2022/03/22 01:02:50;;;;;;;58.83;33.95;;;7.30;99.90;;;;;;5031774;28;20179;-55
2022/03/22 01:05:19;;;;;;;62.72;32.60;;;7.30;99.90;;;;;;5032807;28;20559;-55
2022/03/22 01:08:06;;;;;;;60.05;33.85;;;7.30;99.90;;;;;;5032849;28;20413;-52
2022/03/22 01:10:34;;;;;;;58.97;33.40;;;7.40;99.90;;;;;;5032640;28;20509;-55
2022/03/22 01:13:00;;;;;;;56.13;31.52;;;7.30;99.90;;;;;;5032024;28;20457;-54
2022/03/22 01:15:32;;;;;;;54.67;33.63;;;7.30;99.90;;;;;;5032375;28;20037;-55
2022/03/22 01:17:59;;;;;;;54.85;34.03;;;7.20;99.90;;;;;;5032468;28;20046;-56
2022/03/22 01:20:26;;;;;;;55.88;34.08;;;7.20;99.90;;;;;;5032854;28;20069;-57
2022/03/22 01:22:52;;;;;;;55.22;32.67;;;7.30;99.90;;;;;;5032678;28;20045;-54
2022/03/22 01:25:23;;;;;;;54.33;33.13;;;7.30;99.90;;;;;;5029453;28;20116;-56
2022/03/22 01:27:50;;;;;;;59.97;33.25;;;7.20;99.90;;;;;;5031726;28;20048;-55
2022/03/22 01:30:19;;;;;;;60.53;33.05;;;7.20;99.90;;;;;;5031108;28;20045;-55
2022/03/22 01:32:46;;;;;;;59.05;32.88;;;7.10;99.90;;;;;;5032396;28;20045;-55
2022/03/22 01:35:11;;;;;;;56.33;33.35;;;7.10;99.90;;;;;;5032205;28;20048;-54
2022/03/22 01:37:38;;;;;;;62.67;33.83;;;7.10;99.90;;;;;;5032193;28;20037;-56
2022/03/22 01:40:06;;;;;;;60.33;34.10;;;7.10;99.90;;;;;;5031638;28;20563;-55
2022/03/22 01:42:32;;;;;;;59.58;33.45;;;7.10;99.90;;;;;;5031974;28;20536;-53
2022/03/22 01:44:58;;;;;;;58.28;33.85;;;7.10;99.90;;;;;;5021588;28;20037;-55
2022/03/22 01:47:23;;;;;;;60.53;33.92;;;7.10;99.90;;;;;;5031170;28;20045;-54
2022/03/22 01:49:50;;;;;;;59.85;33.65;;;7.10;99.90;;;;;;5031985;28;20510;-55
2022/03/22 01:52:19;;;;;;;57.28;33.47;;;7.10;99.90;;;;;;5031101;28;20045;-55
2022/03/22 01:54:51;;;;;;;59.47;33.15;;;7.00;99.90;;;;;;5031671;28;20072;-55
2022/03/22 01:57:20;;;;;;;55.03;31.88;;;7.00;99.90;;;;;;5029577;28;20480;-55
2022/03/22 01:59:46;;;;;;;53.63;32.08;;;6.90;99.90;;;;;;5031571;28;20398;-54
2022/03/22 02:07:47;;;;;;;52.92;31.42;;;6.80;99.90;;;;;;5031185;28;20049;-54
2022/03/22 02:10:13;;;;;;;52.90;31.77;;;6.80;99.90;;;;;;5031660;28;20044;-55
2022/03/22 02:12:39;;;;;;;51.17;31.05;;;6.70;99.90;;;;;;5031269;28;20037;-55
2022/03/22 02:15:05;;;;;;;54.50;29.10;;;6.70;99.90;;;;;;5031517;28;20465;-54
2022/03/22 02:17:31;;;;;;;51.25;29.65;;;6.70;99.90;;;;;;5031587;28;20057;-55
2022/03/22 02:19:58;;;;;;;49.28;29.17;;;6.60;99.90;;;;;;5032030;28;20080;-55
2022/03/22 02:22:33;;;;;;;53.70;30.88;;;6.60;99.90;;;;;;5031085;28;20563;-55
2022/03/22 02:24:59;;;;;;;55.40;31.15;;;6.60;99.90;;;;;;5031658;28;20485;-54
2022/03/22 02:27:28;;;;;;;56.05;32.20;;;6.60;99.90;;;;;;5031290;28;20037;-55
2022/03/22 02:29:53;;;;;;;55.35;32.97;;;6.70;99.90;;;;;;5023778;28;20164;-54
2022/03/22 02:32:26;;;;;;;55.33;33.33;;;6.70;99.90;;;;;;5031223;28;20124;-55
2022/03/22 02:34:51;;;;;;;;;;;6.70;99.90;;;;;;5031676;28;20034;-53
2022/03/22 02:37:17;;;;;;;57.42;32.97;;;6.60;99.90;;;;;;5030461;28;20388;-53
2022/03/22 02:39:44;;;;;;;55.78;32.17;;;6.60;99.90;;;;;;5031344;28;20041;-55
2022/03/22 02:42:10;;;;;;;57.10;32.53;;;6.60;99.90;;;;;;5031381;28;20053;-53
2022/03/22 02:44:36;;;;;;;59.85;32.92;;;6.60;99.90;;;;;;5031435;28;20037;-53
2022/03/22 02:47:01;;;;;;;65.22;34.17;;;6.60;99.90;;;;;;5030891;28;20037;-55
2022/03/22 02:49:30;;;;;;;59.10;33.20;;;6.60;99.90;;;;;;5031177;28;20046;-55
2022/03/22 02:51:55;;;;;;;52.67;32.97;;;6.50;99.90;;;;;;5030849;28;20049;-56
2022/03/22 02:54:21;;;;;;;55.60;32.80;;;6.50;99.90;;;;;;5031043;28;20033;-56
2022/03/22 02:56:46;;;;;;;56.00;34.00;;;6.50;99.90;;;;;;5033693;28;20472;-56
2022/03/22 02:59:12;;;;;;;56.65;34.72;;;6.50;99.90;;;;;;5034251;28;20091;-56
2022/03/22 03:01:38;;;;;;;56.70;35.45;;;6.40;99.90;;;;;;5034785;28;20041;-56
2022/03/22 03:04:04;;;;;;;59.63;33.95;;;6.50;99.90;;;;;;5034161;28;20033;-56
2022/03/22 03:06:29;;;;;;;64.32;34.97;;;6.50;99.90;;;;;;5034862;28;20112;-55
2022/03/22 03:08:57;;;;;;;56.53;33.90;;;6.50;99.90;;;;;;5035065;28;20112;-54
2022/03/22 03:11:23;;;;;;;63.78;33.72;;;6.50;99.90;;;;;;5034796;28;20095;-56
2022/03/22 03:16:33;;;;;;;57.35;34.55;;;6.50;99.90;;;;;;5034755;28;20497;-55
2022/03/22 03:18:59;;;;;;;58.20;33.08;;;6.60;99.90;;;;;;5033686;28;20037;-56
2022/03/22 03:21:25;;;;;;;57.80;34.42;;;6.70;99.90;;;;;;5034956;28;20048;-54
2022/03/22 03:23:50;;;;;;;56.90;34.47;;;6.70;99.90;;;;;;5034492;28;20046;-55
2022/03/22 03:26:16;;;;;;;56.25;35.55;;;6.70;99.90;;;;;;5033603;28;20045;-56
2022/03/22 03:28:41;;;;;;;56.78;34.75;;;6.70;99.90;;;;;;5034452;28;20044;-55
2022/03/22 03:31:07;;;;;;;62.70;35.88;;;6.70;99.90;;;;;;5034904;28;20052;-56
2022/03/22 03:33:33;;;;;;;61.55;34.97;;;6.80;99.90;;;;;;5034510;28;20033;-56
2022/03/22 03:35:58;;;;;;;58.30;34.35;;;6.90;99.90;;;;;;5034251;28;20045;-55
2022/03/22 03:38:24;;;;;;;55.40;33.30;;;6.90;99.90;;;;;;5034658;28;20549;-56
2022/03/22 03:43:34;;;;;;;62.72;34.13;;;6.90;99.90;;;;;;5034213;28;20041;-56
2022/03/22 03:48:44;;;;;;;57.50;33.83;;;6.80;99.90;;;;;;5028992;28;20037;-55
2022/03/22 03:51:10;;;;;;;55.63;33.72;;;6.70;99.90;;;;;;5033800;28;20097;-56
2022/03/22 03:53:35;;;;;;;60.70;34.22;;;6.70;99.90;;;;;;5029942;28;20045;-56
2022/03/22 03:56:01;;;;;;;60.85;34.33;;;6.70;99.90;;;;;;5033592;28;20516;-56
2022/03/22 03:58:26;;;;;;;59.90;34.70;;;6.80;99.90;;;;;;5033705;28;20641;-55
2022/03/22 04:00:52;;;;;;;59.22;33.42;;;6.80;99.90;;;;;;5034216;28;20074;-56
2022/03/22 04:03:17;;;;;;;55.50;34.85;;;6.80;99.90;;;;;;5033554;28;20032;-55
2022/03/22 04:05:43;;;;;;;57.38;34.97;;;6.80;99.90;;;;;;5033901;28;20041;-55
2022/03/22 04:11:38;;;;;;;59.63;34.47;;;6.70;99.90;;;;;;5010930;28;20044;-54
2022/03/22 04:14:04;;;;;;;60.30;33.67;;;6.70;99.90;;;;;;5032781;28;20493;-53
2022/03/22 04:16:30;;;;;;;60.35;34.53;;;6.60;99.90;;;;;;5032046;28;20036;-55
2022/03/22 04:18:55;;;;;;;58.10;33.55;;;6.60;99.90;;;;;;5033725;28;20037;-54
2022/03/22 04:21:21;;;;;;;57.78;34.03;;;6.50;99.90;;;;;;5033164;28;20103;-52
2022/03/22 04:23:46;;;;;;;58.15;33.13;;;6.50;99.90;;;;;;5033229;28;20041;-51
2022/03/22 04:26:12;;;;;;;54.55;32.78;;;6.40;99.90;;;;;;5033432;28;20524;-55
2022/03/22 04:34:06;;;;;;;60.28;34.67;;;6.50;99.90;;;;;;5026452;28;20056;-54
2022/03/22 04:36:31;;;;;;;59.45;34.50;;;6.60;99.90;;;;;;5032995;28;20041;-51
2022/03/22 04:38:57;;;;;;;56.83;33.88;;;6.70;99.90;;;;;;5032904;28;20041;-51
2022/03/22 04:41:23;;;;;;;54.42;33.88;;;6.70;99.90;;;;;;5033330;28;20110;-54
2022/03/22 04:43:49;;;;;;;59.20;34.88;;;6.80;99.90;;;;;;5032435;28;20079;-51
2022/03/22 04:46:18;;;;;;;54.65;34.55;;;6.80;99.90;;;;;;5033257;28;20049;-54
2022/03/22 04:48:47;;;;;;;52.75;33.08;;;6.80;99.90;;;;;;5032993;28;20048;-51
2022/03/22 04:56:43;;;;;;;58.08;33.75;;;6.70;99.90;;;;;;5033392;28;20042;-56
2022/03/22 04:59:10;;;;;;;61.03;34.95;;;6.70;99.90;;;;;;5032940;28;20026;-55
2022/03/22 05:01:35;;;;;;;55.33;34.35;;;6.70;99.90;;;;;;5032877;28;20831;-56
2022/03/22 05:04:01;;;;;;;57.20;33.22;;;6.70;99.90;;;;;;5032838;28;20072;-55
2022/03/22 05:06:27;;;;;;;61.30;35.38;;;6.70;99.90;;;;;;5048235;28;20045;-55
2022/03/22 05:08:56;;;;;;;54.33;33.95;;;6.60;99.90;;;;;;5032670;28;20420;-54
2022/03/22 05:11:22;;;;;;;56.95;35.03;;;6.80;99.90;;;;;;5031559;28;20425;-53
2022/03/22 05:13:48;;;;;;;55.75;34.00;;;6.60;99.90;;;;;;5032767;28;20038;-55
2022/03/22 05:16:14;;;;;;;61.55;35.60;;;6.50;99.90;;;;;;5032719;28;20120;-55
2022/03/22 05:18:40;;;;;;;62.60;35.13;;;6.50;99.90;;;;;;5032321;28;20038;-55
2022/03/22 05:21:07;;;;;;;57.95;34.38;;;6.40;99.90;;;;;;5021192;28;20041;-53
2022/03/22 05:23:34;;;;;;;56.40;35.08;;;6.40;99.90;;;;;;5026750;28;20041;-55
2022/03/22 05:26:00;;;;;;;54.00;33.83;;;6.30;99.90;;;;;;5013732;28;20033;-55
2022/03/22 05:28:25;;;;;;;61.15;35.40;;;6.30;99.90;;;;;;5027173;28;20038;-56
2022/03/22 05:30:51;;;;;;;60.80;34.83;;;6.20;99.90;;;;;;5030723;28;20048;-55
2022/03/22 05:33:17;;;;;;;63.95;35.40;;;6.20;99.90;;;;;;5042224;28;20034;-55
2022/03/22 05:35:42;;;;;;;59.47;35.72;;;6.20;99.90;;;;;;5031723;28;20093;-54
2022/03/22 05:38:08;;;;;;;62.22;35.10;;;6.10;99.90;;;;;;5032945;28;20033;-55
2022/03/22 05:40:33;;;;;;;57.47;33.30;;;6.20;99.90;;;;;;5029635;28;20033;-55
2022/03/22 05:42:59;;;;;;;58.28;33.90;;;6.20;99.90;;;;;;5031682;28;20041;-55
2022/03/22 05:45:26;;;;;;;56.25;34.00;;;6.30;99.90;;;;;;5026435;28;20033;-54
2022/03/22 05:47:53;;;;;;;60.30;36.10;;;6.30;99.90;;;;;;5030768;28;20397;-55
2022/03/22 05:50:18;;;;;;;62.03;35.30;;;6.30;99.90;;;;;;5027958;28;20090;-54
2022/03/22 05:52:45;;;;;;;60.90;36.20;;;6.40;99.90;;;;;;5022885;28;20073;-55
2022/03/22 05:55:11;;;;;;;53.20;33.83;;;6.40;99.90;;;;;;5025450;28;20119;-55
2022/03/22 05:57:37;;;;;;;62.00;35.00;;;6.30;99.90;;;;;;5022565;28;20033;-55
2022/03/22 06:00:08;;;;;;;60.25;34.85;;;6.30;99.90;;;;;;5028223;28;20030;-55
2022/03/22 06:02:41;;;;;;;57.65;35.05;;;6.30;99.90;;;;;;5024108;28;20042;-54
2022/03/22 06:05:09;;;;;;;59.83;36.15;;;6.30;99.90;;;;;;5027591;28;20047;-54
2022/03/22 06:07:36;;;;;;;58.28;35.50;;;6.30;99.90;;;;;;5026591;28;20041;-53
2022/03/22 06:10:02;;;;;;;60.67;36.05;;;6.40;99.90;;;;;;5026529;28;20072;-56
2022/03/22 06:12:39;;;;;;;56.38;34.72;;;6.40;99.90;;;;;;5031138;28;20041;-55
2022/03/22 06:15:15;;;;;;;58.80;32.97;;;6.40;99.90;;;;;;5027793;28;20084;-55
2022/03/22 06:17:49;;;;;;;58.75;35.60;;;6.40;99.90;;;;;;5025010;28;20038;-53
2022/03/22 06:20:17;;;;;;;58.22;35.88;;;6.50;99.90;;;;;;5031764;28;20124;-55
2022/03/22 06:22:45;;;;;;;56.30;35.50;;;6.50;99.90;;;;;;5022596;28;20056;-55
2022/03/22 06:25:15;;;;;;;60.38;35.28;;;6.50;99.90;;;;;;5030188;28;20056;-54
2022/03/22 06:27:43;;;;;;;59.60;35.15;;;6.60;99.90;;;;;;5024503;28;20041;-53
2022/03/22 06:30:10;;;;;;;58.17;35.38;;;6.60;99.90;;;;;;5033446;28;20064;-53
2022/03/22 06:32:41;;;;;;;55.80;35.55;;;6.60;99.90;;;;;;5038226;28;20037;-55
2022/03/22 06:35:07;;;;;;;59.30;35.15;;;6.60;99.90;;;;;;5034795;28;20102;-52
2022/03/22 06:37:34;;;;;;;57.28;35.35;;;6.70;99.90;;;;;;5051243;28;20045;-55
2022/03/22 06:40:00;;;;;;;60.47;35.40;;;6.70;99.90;;;;;;5033697;28;20083;-54
2022/03/22 06:42:26;;;;;;;58.08;33.55;;;6.70;99.90;;;;;;5031482;28;20049;-55
2022/03/22 06:44:51;;;;;;;59.20;35.17;;;6.70;99.90;;;;;;5032110;28;20053;-55
2022/03/22 06:47:17;;;;;;;61.22;34.65;;;6.80;99.90;;;;;;5024343;28;20045;-53
2022/03/22 06:49:43;;;;;;;57.83;34.47;;;6.80;99.90;;;;;;5014025;28;20050;-54
2022/03/22 06:52:10;;;;;;;56.65;33.03;;;6.90;99.90;;;;;;5031379;28;20413;-55
2022/03/22 06:54:36;;;;;;;60.85;35.30;;;6.90;99.90;;;;;;5032264;28;20398;-55
2022/03/22 06:57:02;;;;;;;58.67;34.45;;;7.00;99.90;;;;;;5031441;28;20040;-55
2022/03/22 06:59:28;;;;;;;63.05;35.33;;;7.10;99.90;;;;;;5031788;28;20096;-54
2022/03/22 07:01:53;;;;;;;59.45;33.55;;;7.10;99.90;;;;;;5031640;28;20069;-55
2022/03/22 07:04:19;;;;;;;55.58;34.88;;;7.20;99.90;;;;;;5031469;28;20037;-55
2022/03/22 07:06:46;;;;;;;62.83;34.70;;;7.20;99.90;;;;;;5031363;28;20128;-55
2022/03/22 07:09:12;;;;;;;53.55;32.72;;;7.30;99.90;;;;;;5031736;28;20502;-55
2022/03/22 07:11:52;;;;;;;60.00;34.85;;;7.40;99.90;;;;;;5031133;28;20076;-55
2022/03/22 07:14:19;;;;;;;57.05;33.63;;;7.40;99.90;;;;;;5026893;28;20117;-55
2022/03/22 07:16:49;;;;;;;55.42;33.60;;;7.50;99.90;;;;;;5031143;28;20040;-54
2022/03/22 07:19:20;;;;;;;53.85;33.97;;;7.60;99.90;;;;;;5030856;28;20120;-54
2022/03/22 07:21:46;;;;;;;55.87;33.50;;;7.70;99.90;;;;;;5030234;28;20489;-52
2022/03/22 07:24:13;;;;;;;57.35;34.03;;;7.80;99.90;;;;;;5031110;28;20041;-54
2022/03/22 07:26:40;;;;;;;57.42;34.97;;;7.90;99.90;;;;;;5031275;28;20118;-55
2022/03/22 07:29:07;;;;;;;60.42;33.03;;;8.00;99.90;;;;;;5031750;28;20135;-53
2022/03/22 07:31:37;;;;;;;55.60;33.33;;;8.10;99.90;;;;;;5031027;28;20413;-54
2022/03/22 07:34:05;;;;;;;54.47;33.75;;;8.20;99.90;;;;;;5031320;28;20040;-53
2022/03/22 07:36:30;;;;;;;57.00;32.70;;;8.30;99.90;;;;;;5030948;28;20048;-55
2022/03/22 07:38:56;;;;;;;54.08;32.22;;;8.40;99.90;;;;;;5031226;28;20038;-55
2022/03/22 07:41:22;;;;;;;59.63;32.30;;;8.60;99.90;;;;;;5031329;28;20037;-53
2022/03/22 07:43:48;;;;;;;52.90;31.75;;;8.70;99.90;;;;;;5034851;28;20080;-55
2022/03/22 07:46:14;;;;;;;50.63;31.33;;;8.90;99.90;;;;;;5033264;28;20239;-55
2022/03/22 07:48:39;;;;;;;53.65;31.67;;;9.00;99.90;;;;;;5033587;28;20038;-53
2022/03/22 07:53:49;;;;;;;50.85;29.98;;;9.20;99.90;;;;;;5034530;28;20413;-51
2022/03/22 07:56:15;;;;;;;52.28;30.52;;;9.40;99.90;;;;;;5034594;28;20047;-54
2022/03/22 07:58:41;;;;;;;49.03;30.33;;;9.50;99.90;;;;;;5034384;28;20560;-55
2022/03/22 08:01:07;;;;;;;50.05;30.58;;;9.70;99.90;;;;;;5033178;28;20047;-55
2022/03/22 08:03:32;;;;;;;45.42;29.95;;;9.80;99.90;;;;;;5033055;28;20041;-54
2022/03/22 08:06:00;;;;;;;53.58;27.27;;;9.90;99.90;;;;;;5034274;28;20041;-55
2022/03/22 08:08:25;;;;;;;50.15;30.90;;;10.10;99.90;;;;;;5025614;28;20557;-55
2022/03/22 08:10:51;;;;;;;48.83;29.67;;;10.30;99.90;;;;;;5014822;28;20053;-54
2022/03/22 08:13:17;;;;;;;42.53;26.90;;;10.30;99.90;;;;;;5013156;28;20042;-55
2022/03/22 08:15:43;;;;;;;46.40;27.23;;;10.50;99.90;;;;;;5013122;28;20498;-55
2022/03/22 08:18:09;;;;;;;42.13;25.80;;;10.60;99.90;;;;;;5014389;28;20057;-53
2022/03/22 08:20:35;;;;;;;45.42;27.35;;;10.70;99.90;;;;;;5014448;28;20057;-53
2022/03/22 08:23:06;;;;;;;40.58;25.38;;;10.80;99.90;;;;;;5044817;28;20053;-55
2022/03/22 08:25:36;;;;;;;42.25;24.45;;;10.90;99.90;;;;;;5034251;28;20482;-55
2022/03/22 08:28:03;;;;;;;39.00;23.92;;;11.00;99.70;;;;;;5033954;28;20056;-56
2022/03/22 08:30:30;;;;;;;44.92;26.30;;;11.20;98.80;;;;;;5033927;28;20049;-55
2022/03/22 08:32:58;;;;;;;42.17;25.33;;;11.30;99.30;;;;;;5033789;28;20116;-55
2022/03/22 08:35:25;;;;;;;46.60;25.63;;;11.30;98.90;;;;;;5033328;28;20115;-54
2022/03/22 08:37:51;;;;;;;39.70;24.77;;;11.50;98.90;;;;;;5032581;28;20048;-55
2022/03/22 08:40:17;;;;;;;43.42;26.13;;;11.60;99.20;;;;;;5033683;28;20068;-56
2022/03/22 08:42:44;;;;;;;39.55;25.05;;;11.70;99.00;;;;;;5032289;28;20123;-54
2022/03/22 08:45:12;;;;;;;40.20;25.95;;;11.80;98.40;;;;;;5034736;28;20038;-53
2022/03/22 08:47:40;;;;;;;36.75;25.00;;;12.00;98.40;;;;;;5028831;28;20180;-55
2022/03/22 08:50:08;;;;;;;37.83;25.20;;;12.00;98.50;;;;;;5013813;28;20049;-55
2022/03/22 08:52:35;;;;;;;43.28;24.83;;;12.10;98.00;;;;;;5013129;28;20132;-55
2022/03/22 08:55:01;;;;;;;39.50;24.65;;;12.20;98.10;;;;;;5013213;28;20092;-56
2022/03/22 08:57:26;;;;;;;41.13;24.67;;;12.40;98.10;;;;;;5029414;28;20045;-56
2022/03/22 08:59:52;;;;;;;38.65;25.50;;;12.40;98.00;;;;;;5013678;28;20034;-56
2022/03/22 09:02:17;;;;;;;41.08;24.77;;;12.50;98.00;;;;;;5013691;28;20069;-56
2022/03/22 09:07:27;;;;;;;39.45;26.10;;;12.80;97.10;;;;;;5013695;28;20052;-55
2022/03/22 09:09:53;;;;;;;41.60;24.23;;;12.90;96.10;;;;;;5022580;28;20132;-55
2022/03/22 09:12:19;;;;;;;39.25;25.08;;;13.00;96.50;;;;;;5033233;28;20076;-55
2022/03/22 09:14:44;;;;;;;37.53;24.63;;;13.10;96.60;;;;;;5033115;28;20226;-54
2022/03/22 09:17:10;;;;;;;38.83;24.67;;;13.20;95.40;;;;;;5031943;28;20078;-55
2022/03/22 09:19:36;;;;;;;41.22;25.77;;;13.20;94.90;;;;;;5031740;28;20132;-55
2022/03/22 09:22:05;;;;;;;37.30;24.52;;;13.30;94.20;;;;;;5033093;28;20080;-54
2022/03/22 09:24:36;;;;;;;38.47;24.80;;;13.40;92.40;;;;;;5032942;28;20041;-54
2022/03/22 09:27:03;;;;;;;39.08;24.35;;;13.50;93.10;;;;;;5032589;28;20042;-56
2022/03/22 09:29:28;;;;;;;41.05;25.40;;;13.50;93.10;;;;;;5031419;28;20128;-55
2022/03/22 09:31:54;;;;;;;42.13;24.30;;;13.60;93.30;;;;;;5032864;28;20116;-53
2022/03/22 09:34:21;;;;;;;39.80;24.45;;;13.70;93.20;;;;;;5033077;28;20044;-55
2022/03/22 09:36:47;;;;;;;38.05;23.98;;;13.80;92.50;;;;;;5032923;28;20048;-53
2022/03/22 09:39:12;;;;;;;37.00;23.05;;;13.90;91.80;;;;;;5032284;28;20033;-56
2022/03/22 09:41:38;;;;;;;37.10;23.40;;;14.00;91.40;;;;;;5032468;28;20088;-56
2022/03/22 09:44:04;;;;;;;38.05;25.33;;;14.00;91.70;;;;;;5032890;28;20072;-55
2022/03/22 09:46:32;;;;;;;33.90;23.75;;;14.10;91.60;;;;;;5032791;28;20037;-53
2022/03/22 09:48:58;;;;;;;42.35;24.27;;;14.20;90.30;;;;;;5031510;28;20084;-55
2022/03/22 09:54:10;;;;;;;37.30;24.30;;;14.30;91.40;;;;;;5032299;28;20096;-55
2022/03/22 09:56:35;;;;;;;36.85;23.38;;;14.40;91.00;;;;;;5032456;28;20493;-53
2022/03/22 09:59:03;;;;;;;37.67;25.27;;;14.60;90.60;;;;;;5032328;28;20124;-54
2022/03/22 10:01:30;;;;;;;36.03;24.40;;;14.60;88.40;;;;;;5032589;28;20045;-54
2022/03/22 10:04:05;;;;;;;38.55;24.38;;;14.70;89.10;;;;;;5031882;28;20112;-56
2022/03/22 10:06:32;;;;;;;38.38;24.63;;;14.80;88.30;;;;;;5032203;28;20045;-56
2022/03/22 10:08:58;;;;;;;34.78;23.65;;;14.80;88.40;;;;;;5036443;28;20041;-55
2022/03/22 10:11:35;;;;;;;33.60;23.60;;;14.80;88.80;;;;;;5030725;28;20048;-56
2022/03/22 10:14:01;;;;;;;35.33;23.92;;;14.90;89.10;;;;;;5031928;28;20041;-55
2022/03/22 10:16:27;;;;;;;36.33;24.58;;;15.00;88.50;;;;;;5031281;28;20100;-55
2022/03/22 10:18:53;;;;;;;38.65;23.13;;;15.20;88.00;;;;;;5029566;28;20065;-52
2022/03/22 10:21:19;;;;;;;35.88;24.10;;;15.30;86.00;;;;;;5019950;28;20089;-53
2022/03/22 10:23:54;;;;;;;37.17;23.20;;;15.40;83.80;;;;;;5023292;28;20077;-56
2022/03/22 10:26:21;;;;;;;36.38;23.60;;;15.50;81.20;;;;;;5031554;28;20037;-55
2022/03/22 10:28:52;;;;;;;31.48;22.08;;;15.50;81.60;;;;;;5031145;28;20052;-55
2022/03/22 10:31:17;;;;;;;33.80;23.08;;;15.60;81.70;;;;;;5024522;28;20497;-57
2022/03/22 10:33:53;;;;;;;38.08;23.63;;;15.70;81.70;;;;;;5011643;28;20034;-56
2022/03/22 10:36:21;;;;;;;38.30;24.23;;;15.80;79.20;;;;;;5011829;28;20113;-55
2022/03/22 10:39:00;;;;;;;38.22;24.42;;;15.90;78.80;;;;;;5010597;28;20117;-56
2022/03/22 10:41:27;;;;;;;36.35;24.25;;;16.00;78.10;;;;;;5029466;28;20502;-56
2022/03/22 10:44:18;;;;;;;37.30;24.65;;;16.10;78.00;;;;;;5031429;28;20033;-56
2022/03/22 10:46:46;;;;;;;36.92;24.08;;;16.10;77.20;;;;;;5030508;28;20042;-54
2022/03/22 10:49:17;;;;;;;37.45;23.70;;;16.10;77.80;;;;;;5031590;28;20045;-56
2022/03/22 10:51:43;;;;;;;41.83;24.23;;;16.20;77.60;;;;;;5031234;28;20049;-55
2022/03/22 10:54:12;;;;;;;33.95;23.60;;;16.30;76.20;;;;;;5031259;28;20045;-55
2022/03/22 10:56:50;;;;;;;44.53;25.20;;;16.30;72.80;;;;;;5031392;28;20052;-55
2022/03/22 10:59:19;;;;;;;38.20;24.08;;;16.30;73.40;;;;;;5046905;28;20052;-55
2022/03/22 11:01:46;;;;;;;41.40;25.13;;;16.40;74.50;;;;;;5011807;28;20478;-54
2022/03/22 11:04:16;;;;;;;35.97;24.48;;;16.50;72.90;;;;;;5011706;28;20066;-54
2022/03/22 11:06:46;;;;;;;37.53;23.38;;;16.50;72.80;;;;;;5011645;28;20037;-55
2022/03/22 11:09:16;;;;;;;37.95;23.73;;;16.60;71.30;;;;;;5011585;28;20034;-54
2022/03/22 11:11:43;;;;;;;37.45;24.52;;;16.60;71.00;;;;;;5010480;28;20042;-55
2022/03/22 11:14:12;;;;;;;36.03;23.48;;;16.60;71.10;;;;;;5023495;28;20041;-55
2022/03/22 11:16:39;;;;;;;34.60;24.73;;;16.60;70.80;;;;;;5031974;28;20029;-55
2022/03/22 11:19:05;;;;;;;37.97;24.25;;;16.60;70.50;;;;;;5017668;28;20461;-55
2022/03/22 11:21:31;;;;;;;36.28;24.42;;;16.60;71.50;;;;;;5035681;28;20049;-54
2022/03/22 11:24:11;;;;;;;37.67;25.48;;;16.70;69.40;;;;;;5017751;28;20053;-54
2022/03/22 11:26:42;;;;;;;36.50;24.50;;;16.70;70.40;;;;;;5035232;28;20053;-56
2022/03/22 11:29:13;;;;;;;38.15;23.48;;;16.70;69.70;;;;;;5034416;28;20512;-55
2022/03/22 11:31:41;;;;;;;34.08;22.77;;;16.80;69.00;;;;;;5035040;28;20048;-54
2022/03/22 11:34:11;;;;;;;39.05;24.58;;;16.80;68.70;;;;;;5033576;28;20584;-54
2022/03/22 11:36:46;;;;;;;37.95;22.48;;;16.80;68.50;;;;;;5033657;28;20120;-54
2022/03/22 11:39:17;;;;;;;36.47;23.10;;;16.90;67.60;;;;;;5035005;28;20045;-55
2022/03/22 11:44:32;;;;;;;36.47;23.50;;;17.00;68.90;;;;;;5034602;28;20051;-55
2022/03/22 11:47:04;;;;;;;34.67;22.95;;;17.10;68.40;;;;;;5034597;28;20037;-55
2022/03/22 11:49:30;;;;;;;35.47;23.40;;;17.20;67.60;;;;;;5031527;28;20047;-55
2022/03/22 11:52:10;;;;;;;39.67;24.25;;;17.30;66.20;;;;;;5034349;28;20140;-55
2022/03/22 11:54:37;;;;;;;40.00;23.65;;;17.30;67.10;;;;;;5034554;28;20389;-56
2022/03/22 11:57:05;;;;;;;40.92;23.58;;;17.40;65.60;;;;;;5013902;28;20033;-55
2022/03/22 11:59:46;;;;;;;38.30;23.55;;;17.50;63.40;;;;;;5034587;28;20048;-54
2022/03/22 12:02:15;;;;;;;42.05;24.55;;;17.50;64.70;;;;;;5034560;28;20045;-54
2022/03/22 12:04:54;;;;;;;38.88;23.60;;;17.60;65.60;;;;;;5034451;28;20033;-56
2022/03/22 12:07:30;;;;;;;37.35;23.83;;;17.80;64.10;;;;;;5033094;28;20099;-54
2022/03/22 12:13:21;;;;;;;36.63;22.67;;;17.80;63.70;;;;;;5033456;28;20042;-55
2022/03/22 12:15:47;;;;;;;35.00;22.88;;;17.80;64.10;;;;;;5033982;28;20423;-54
2022/03/22 12:18:12;;;;;;;34.75;22.15;;;17.90;61.10;;;;;;5034142;28;20047;-55
2022/03/22 12:20:39;;;;;;;36.40;21.83;;;17.90;60.50;;;;;;5033874;28;20037;-55
2022/03/22 12:23:06;;;;;;;34.20;21.10;;;17.90;59.70;;;;;;5033735;28;20092;-55
2022/03/22 12:25:34;;;;;;;35.88;22.05;;;17.90;60.20;;;;;;5034033;28;20067;-54
2022/03/22 12:28:07;;;;;;;35.22;22.65;;;17.90;61.10;;;;;;5033970;28;20058;-55
2022/03/22 12:30:36;;;;;;;38.67;22.00;;;18.00;61.50;;;;;;5032612;28;20053;-55
2022/03/22 12:33:07;;;;;;;35.28;20.90;;;18.10;61.10;;;;;;5046768;28;20037;-54
2022/03/22 12:35:34;;;;;;;36.28;22.40;;;18.10;60.50;;;;;;5033777;28;20120;-54
2022/03/22 12:38:00;;;;;;;37.10;21.95;;;18.10;60.00;;;;;;5032830;28;20034;-54
2022/03/22 12:40:27;;;;;;;35.63;22.63;;;18.20;59.20;;;;;;5033684;28;20052;-54
2022/03/22 12:42:54;;;;;;;35.97;21.25;;;18.30;59.60;;;;;;5033487;28;20072;-55
2022/03/22 12:45:22;;;;;;;35.78;21.05;;;18.30;58.10;;;;;;5033750;28;20037;-55
2022/03/22 12:47:48;;;;;;;37.78;22.40;;;18.30;57.10;;;;;;5032277;28;20135;-54
2022/03/22 12:50:15;;;;;;;31.17;20.58;;;18.30;57.70;;;;;;5033658;28;20049;-56
2022/03/22 12:52:41;;;;;;;32.35;21.20;;;18.30;58.60;;;;;;5032758;28;20053;-54
2022/03/22 12:55:09;;;;;;;29.80;19.65;;;18.40;58.80;;;;;;5032662;28;20125;-54
2022/03/22 12:57:38;;;;;;;32.17;19.55;;;18.50;58.70;;;;;;5033484;28;20034;-55
2022/03/22 13:00:04;;;;;;;32.95;20.15;;;18.60;56.60;;;;;;5033468;28;20072;-55
2022/03/22 13:02:30;;;;;;;33.80;20.38;;;18.70;55.00;;;;;;5033162;28;20615;-57
2022/03/22 13:04:56;;;;;;;35.72;20.23;;;18.70;55.00;;;;;;5032652;28;20057;-56
2022/03/22 13:07:23;;;;;;;34.20;22.15;;;18.60;55.90;;;;;;5033088;28;20037;-55
2022/03/22 13:12:34;;;;;;;32.38;20.20;;;18.50;55.10;;;;;;5033143;28;20064;-54
2022/03/22 13:15:10;;;;;;;29.95;18.92;;;18.50;54.30;;;;;;5033207;28;20045;-55
2022/03/22 13:17:45;;;;;;;31.98;18.70;;;18.50;54.60;;;;;;5032803;28;20448;-55
2022/03/22 13:20:18;;;;;;;30.27;18.35;;;18.50;55.60;;;;;;5033013;28;20037;-56